createdAt,value
2018-01-02T00:00:42.540Z,0.00
2018-01-02T00:01:42.529Z,0.00
2018-01-02T00:02:42.516Z,0.00
2018-01-02T00:03:42.495Z,0.00
2018-01-02T00:04:42.481Z,0.00
2018-01-02T00:05:42.471Z,0.00
2018-01-02T00:06:42.453Z,0.00
2018-01-02T00:07:42.438Z,0.00
2018-01-02T00:08:42.434Z,0.00
2018-01-02T00:09:42.411Z,0.00
2018-01-02T00:10:42.393Z,0.00
2018-01-02T00:11:42.391Z,0.00
2018-01-02T00:12:42.363Z,0.00
2018-01-02T00:13:42.348Z,0.00
2018-01-02T00:14:42.333Z,0.00
2018-01-02T00:15:42.322Z,0.00
2018-01-02T00:16:42.305Z,0.00
2018-01-02T00:17:42.289Z,0.00
2018-01-02T00:18:42.279Z,0.00
2018-01-02T00:19:42.259Z,0.00
2018-01-02T00:20:42.248Z,0.00
2018-01-02T00:21:42.230Z,0.00
2018-01-02T00:22:42.215Z,0.00
2018-01-02T00:23:42.203Z,0.00
2018-01-02T00:24:42.187Z,0.00
2018-01-02T00:25:42.173Z,0.00
2018-01-02T00:26:42.159Z,0.00
2018-01-02T00:27:42.149Z,0.00
2018-01-02T00:28:42.130Z,0.00
2018-01-02T00:29:42.113Z,0.00
2018-01-02T00:30:42.098Z,0.00
2018-01-02T00:31:42.086Z,0.00
2018-01-02T00:32:42.071Z,0.00
2018-01-02T00:33:42.054Z,0.00
2018-01-02T00:34:42.045Z,0.00
2018-01-02T00:35:42.028Z,0.00
2018-01-02T00:36:42.011Z,0.00
2018-01-02T00:37:42.004Z,0.00
2018-01-02T00:38:41.983Z,0.00
2018-01-02T00:39:41.971Z,0.00
2018-01-02T00:40:41.956Z,0.00
2018-01-02T00:41:41.943Z,0.00
2018-01-02T00:42:41.922Z,0.00
2018-01-02T00:43:41.915Z,0.00
2018-01-02T00:44:41.895Z,0.00
2018-01-02T00:45:41.881Z,0.00
2018-01-02T00:46:41.869Z,0.00
2018-01-02T00:47:41.853Z,0.00
2018-01-02T00:48:41.842Z,0.00
2018-01-02T00:49:41.823Z,0.00
2018-01-02T00:50:41.808Z,0.00
2018-01-02T00:51:41.792Z,0.00
2018-01-02T00:52:41.784Z,0.00
2018-01-02T00:53:41.764Z,0.00
2018-01-02T00:54:41.751Z,0.00
2018-01-02T00:55:41.744Z,0.00
2018-01-02T00:56:41.722Z,0.00
2018-01-02T00:57:41.706Z,0.00
2018-01-02T00:58:41.693Z,0.00
2018-01-02T00:59:41.677Z,0.00
2018-01-02T01:00:41.663Z,0.00
2018-01-02T01:01:41.646Z,0.00
2018-01-02T01:02:41.639Z,0.00
2018-01-02T01:03:41.618Z,0.00
2018-01-02T01:04:41.607Z,0.00
2018-01-02T01:05:41.589Z,0.00
2018-01-02T01:06:41.580Z,0.00
2018-01-02T01:07:41.561Z,0.00
2018-01-02T01:08:41.548Z,0.00
2018-01-02T01:09:41.531Z,0.00
2018-01-02T01:10:41.518Z,0.00
2018-01-02T01:11:41.509Z,0.00
2018-01-02T01:12:41.494Z,0.00
2018-01-02T01:13:41.472Z,0.00
2018-01-02T01:14:41.465Z,0.00
2018-01-02T01:15:41.447Z,0.00
2018-01-02T01:16:41.431Z,0.00
2018-01-02T01:17:41.421Z,0.00
2018-01-02T01:18:41.407Z,0.00
2018-01-02T01:19:41.387Z,0.00
2018-01-02T01:20:41.372Z,0.00
2018-01-02T01:21:41.362Z,0.00
2018-01-02T01:22:41.350Z,0.00
2018-01-02T01:23:41.327Z,0.00
2018-01-02T01:24:41.315Z,0.00
2018-01-02T01:25:41.300Z,0.00
2018-01-02T01:26:41.284Z,0.00
2018-01-02T01:27:41.270Z,0.00
2018-01-02T01:28:41.254Z,0.00
2018-01-02T01:29:41.244Z,0.00
2018-01-02T01:30:41.231Z,0.00
2018-01-02T01:31:41.210Z,0.00
2018-01-02T01:32:41.196Z,0.00
2018-01-02T01:33:41.180Z,0.00
2018-01-02T01:34:41.167Z,0.00
2018-01-02T01:35:41.150Z,0.00
2018-01-02T01:36:41.141Z,0.00
2018-01-02T01:37:41.122Z,0.00
2018-01-02T01:38:41.106Z,0.00
2018-01-02T01:39:41.096Z,0.00
2018-01-02T01:40:41.083Z,0.00
2018-01-02T01:41:41.067Z,0.00
2018-01-02T01:42:41.046Z,0.00
2018-01-02T01:43:41.033Z,0.00
2018-01-02T01:44:41.018Z,0.00
2018-01-02T01:45:41.003Z,0.00
2018-01-02T01:46:40.987Z,0.00
2018-01-02T01:47:40.976Z,0.00
2018-01-02T01:48:40.965Z,0.00
2018-01-02T01:49:40.949Z,0.00
2018-01-02T01:50:40.932Z,0.00
2018-01-02T01:51:40.945Z,0.00
2018-01-02T01:52:40.900Z,0.00
2018-01-02T01:53:40.883Z,0.00
2018-01-02T01:54:40.872Z,0.00
2018-01-02T01:55:40.855Z,0.00
2018-01-02T01:56:40.846Z,0.00
2018-01-02T01:57:40.826Z,0.00
2018-01-02T01:58:40.818Z,0.00
2018-01-02T01:59:40.796Z,0.00
2018-01-02T02:00:40.781Z,0.00
2018-01-02T02:01:40.766Z,0.00
2018-01-02T02:02:40.757Z,0.00
2018-01-02T02:03:40.735Z,0.00
2018-01-02T02:04:40.726Z,0.00
2018-01-02T02:05:40.704Z,0.00
2018-01-02T02:06:40.690Z,0.00
2018-01-02T02:07:40.679Z,0.00
2018-01-02T02:08:40.663Z,0.00
2018-01-02T02:09:40.651Z,0.00
2018-01-02T02:10:40.634Z,0.00
2018-01-02T02:11:40.621Z,0.00
2018-01-02T02:12:40.601Z,0.00
2018-01-02T02:13:40.584Z,0.00
2018-01-02T02:14:40.570Z,0.00
2018-01-02T02:15:40.554Z,0.00
2018-01-02T02:16:40.538Z,0.00
2018-01-02T02:17:40.530Z,0.00
2018-01-02T02:18:40.520Z,0.00
2018-01-02T02:19:40.494Z,0.00
2018-01-02T02:20:40.479Z,0.00
2018-01-02T02:21:40.463Z,0.00
2018-01-02T02:22:40.455Z,0.00
2018-01-02T02:23:40.434Z,0.00
2018-01-02T02:24:40.425Z,0.00
2018-01-02T02:25:40.405Z,0.00
2018-01-02T02:26:40.391Z,0.00
2018-01-02T02:27:40.376Z,0.00
2018-01-02T02:28:40.359Z,0.00
2018-01-02T02:29:40.343Z,0.00
2018-01-02T02:30:40.328Z,0.00
2018-01-02T02:31:40.311Z,0.00
2018-01-02T02:32:40.299Z,0.00
2018-01-02T02:33:40.282Z,0.00
2018-01-02T02:34:40.273Z,0.00
2018-01-02T02:35:40.252Z,0.00
2018-01-02T02:36:40.241Z,0.00
2018-01-02T02:37:40.220Z,0.00
2018-01-02T02:38:40.205Z,0.00
2018-01-02T02:39:40.197Z,0.00
2018-01-02T02:40:40.176Z,0.00
2018-01-02T02:41:40.166Z,0.00
2018-01-02T02:42:40.145Z,0.00
2018-01-02T02:43:40.131Z,0.00
2018-01-02T02:44:40.116Z,0.00
2018-01-02T02:45:40.099Z,0.00
2018-01-02T02:46:40.087Z,0.00
2018-01-02T02:47:40.071Z,0.00
2018-01-02T02:48:40.062Z,0.00
2018-01-02T02:49:40.042Z,0.00
2018-01-02T02:50:40.026Z,0.00
2018-01-02T02:51:40.017Z,0.00
2018-01-02T02:52:40.002Z,0.00
2018-01-02T02:53:39.980Z,0.00
2018-01-02T02:54:39.962Z,0.00
2018-01-02T02:55:39.948Z,0.00
2018-01-02T02:56:39.936Z,0.00
2018-01-02T02:57:39.926Z,0.00
2018-01-02T02:58:39.905Z,0.00
2018-01-02T02:59:39.891Z,0.00
2018-01-02T03:00:39.875Z,0.00
2018-01-02T03:01:39.858Z,0.00
2018-01-02T03:02:39.844Z,0.00
2018-01-02T03:03:39.835Z,0.00
2018-01-02T03:04:39.814Z,0.00
2018-01-02T03:05:39.803Z,0.00
2018-01-02T03:06:39.786Z,0.00
2018-01-02T03:07:39.770Z,0.00
2018-01-02T03:08:39.755Z,0.00
2018-01-02T03:09:39.748Z,0.00
2018-01-02T03:10:39.726Z,0.00
2018-01-02T03:11:39.710Z,0.00
2018-01-02T03:12:39.697Z,0.00
2018-01-02T03:13:39.686Z,0.00
2018-01-02T03:14:39.670Z,0.00
2018-01-02T03:15:39.656Z,0.00
2018-01-02T03:16:39.641Z,0.00
2018-01-02T03:17:39.620Z,0.00
2018-01-02T03:18:39.607Z,0.00
2018-01-02T03:19:39.590Z,0.00
2018-01-02T03:20:39.575Z,0.00
2018-01-02T03:21:39.562Z,0.00
2018-01-02T03:22:39.545Z,0.00
2018-01-02T03:23:39.531Z,0.00
2018-01-02T03:24:39.518Z,0.00
2018-01-02T03:25:39.501Z,0.00
2018-01-02T03:26:39.486Z,0.00
2018-01-02T03:27:39.478Z,0.00
2018-01-02T03:28:39.460Z,0.00
2018-01-02T03:29:39.443Z,0.00
2018-01-02T03:30:39.430Z,0.00
2018-01-02T03:31:39.410Z,0.00
2018-01-02T03:32:39.394Z,0.00
2018-01-02T03:33:39.380Z,0.00
2018-01-02T03:34:39.370Z,0.00
2018-01-02T03:35:39.350Z,0.00
2018-01-02T03:36:39.336Z,0.00
2018-01-02T03:37:39.326Z,0.00
2018-01-02T03:38:39.309Z,0.00
2018-01-02T03:39:39.294Z,0.00
2018-01-02T03:40:39.274Z,0.00
2018-01-02T03:41:39.259Z,0.00
2018-01-02T03:42:39.244Z,0.00
2018-01-02T03:43:39.228Z,0.00
2018-01-02T03:44:39.220Z,0.00
2018-01-02T03:45:39.199Z,0.00
2018-01-02T03:46:39.187Z,0.00
2018-01-02T03:47:39.169Z,0.00
2018-01-02T03:48:39.159Z,0.00
2018-01-02T03:49:39.137Z,0.00
2018-01-02T03:50:39.122Z,0.00
2018-01-02T03:51:39.109Z,0.00
2018-01-02T03:52:39.094Z,0.00
2018-01-02T03:53:39.077Z,0.00
2018-01-02T03:54:39.067Z,0.00
2018-01-02T03:55:39.047Z,0.00
2018-01-02T03:56:39.033Z,0.00
2018-01-02T03:57:39.024Z,0.00
2018-01-02T03:58:39.001Z,0.00
2018-01-02T03:59:38.988Z,0.00
2018-01-02T04:00:38.972Z,0.00
2018-01-02T04:01:38.959Z,0.00
2018-01-02T04:02:38.950Z,0.00
2018-01-02T04:03:38.928Z,0.00
2018-01-02T04:04:38.913Z,0.00
2018-01-02T04:05:38.904Z,0.00
2018-01-02T04:06:38.883Z,0.00
2018-01-02T04:07:38.867Z,0.00
2018-01-02T04:08:38.859Z,0.00
2018-01-02T04:09:38.837Z,0.00
2018-01-02T04:10:38.823Z,0.00
2018-01-02T04:11:38.811Z,0.00
2018-01-02T04:12:38.794Z,0.00
2018-01-02T04:13:38.776Z,0.00
2018-01-02T04:14:38.767Z,0.00
2018-01-02T04:15:38.747Z,0.00
2018-01-02T04:16:38.742Z,0.00
2018-01-02T04:17:38.715Z,0.00
2018-01-02T04:18:38.704Z,0.00
2018-01-02T04:19:38.693Z,0.00
2018-01-02T04:20:38.671Z,0.00
2018-01-02T04:21:38.660Z,0.00
2018-01-02T04:22:38.640Z,0.00
2018-01-02T04:23:38.629Z,0.00
2018-01-02T04:24:38.609Z,0.00
2018-01-02T04:25:38.593Z,0.00
2018-01-02T04:26:38.584Z,0.00
2018-01-02T04:27:38.564Z,0.00
2018-01-02T04:28:38.552Z,0.00
2018-01-02T04:29:38.537Z,0.00
2018-01-02T04:30:38.520Z,0.00
2018-01-02T04:31:38.508Z,0.00
2018-01-02T04:32:38.489Z,0.00
2018-01-02T04:33:38.477Z,0.00
2018-01-02T04:34:38.458Z,0.00
2018-01-02T04:35:38.445Z,0.00
2018-01-02T04:36:38.429Z,0.00
2018-01-02T04:37:38.419Z,0.00
2018-01-02T04:38:38.400Z,0.00
2018-01-02T04:39:38.388Z,0.00
2018-01-02T04:40:38.367Z,0.00
2018-01-02T04:41:38.353Z,0.00
2018-01-02T04:42:38.337Z,0.00
2018-01-02T04:43:38.327Z,0.00
2018-01-02T04:44:38.307Z,0.00
2018-01-02T04:45:38.296Z,0.00
2018-01-02T04:46:38.276Z,0.00
2018-01-02T04:47:38.261Z,0.00
2018-01-02T04:48:38.252Z,0.00
2018-01-02T04:49:38.239Z,0.00
2018-01-02T04:50:38.219Z,0.00
2018-01-02T04:51:38.201Z,0.00
2018-01-02T04:52:38.192Z,0.00
2018-01-02T04:53:38.171Z,0.00
2018-01-02T04:54:38.161Z,0.00
2018-01-02T04:55:38.142Z,0.00
2018-01-02T04:56:38.127Z,0.00
2018-01-02T04:57:38.117Z,0.00
2018-01-02T04:58:38.094Z,0.00
2018-01-02T04:59:38.083Z,0.00
2018-01-02T05:00:38.066Z,0.00
2018-01-02T05:01:38.063Z,0.00
2018-01-02T05:02:38.036Z,0.00
2018-01-02T05:03:38.021Z,0.00
2018-01-02T05:04:38.005Z,0.00
2018-01-02T05:05:37.993Z,0.00
2018-01-02T05:06:37.976Z,0.00
2018-01-02T05:07:37.964Z,0.00
2018-01-02T05:08:37.945Z,0.00
2018-01-02T05:09:37.933Z,0.00
2018-01-02T05:10:37.916Z,0.00
2018-01-02T05:11:37.899Z,0.00
2018-01-02T05:12:37.883Z,0.00
2018-01-02T05:13:37.874Z,0.00
2018-01-02T05:14:37.859Z,0.00
2018-01-02T05:15:37.840Z,0.00
2018-01-02T05:16:37.823Z,0.00
2018-01-02T05:17:37.809Z,0.00
2018-01-02T05:18:37.794Z,0.00
2018-01-02T05:19:37.782Z,0.00
2018-01-02T05:20:37.764Z,0.00
2018-01-02T05:21:37.747Z,0.00
2018-01-02T05:22:37.739Z,0.00
2018-01-02T05:23:37.723Z,0.00
2018-01-02T05:24:37.703Z,0.00
2018-01-02T05:25:37.688Z,0.00
2018-01-02T05:26:37.671Z,0.00
2018-01-02T05:27:37.658Z,0.00
2018-01-02T05:28:37.642Z,0.00
2018-01-02T05:29:37.630Z,0.00
2018-01-02T05:30:37.616Z,0.00
2018-01-02T05:31:37.595Z,0.00
2018-01-02T05:32:37.588Z,0.00
2018-01-02T05:33:37.566Z,0.00
2018-01-02T05:34:37.559Z,0.00
2018-01-02T05:35:37.539Z,0.00
2018-01-02T05:36:37.526Z,0.00
2018-01-02T05:37:37.505Z,0.00
2018-01-02T05:38:37.493Z,0.00
2018-01-02T05:39:37.475Z,0.00
2018-01-02T05:40:37.464Z,0.00
2018-01-02T05:41:37.449Z,0.00
2018-01-02T05:42:37.427Z,0.00
2018-01-02T05:43:37.412Z,0.00
2018-01-02T05:44:37.398Z,0.00
2018-01-02T05:45:37.387Z,0.00
2018-01-02T05:46:37.375Z,0.00
2018-01-02T05:47:37.352Z,0.00
2018-01-02T05:48:37.339Z,0.00
2018-01-02T05:49:37.323Z,0.00
2018-01-02T05:50:37.306Z,0.00
2018-01-02T05:51:37.291Z,0.00
2018-01-02T05:52:37.283Z,0.00
2018-01-02T05:53:37.262Z,0.00
2018-01-02T05:54:37.244Z,0.00
2018-01-02T05:55:37.233Z,0.00
2018-01-02T05:56:37.215Z,0.00
2018-01-02T05:57:37.201Z,0.00
2018-01-02T05:58:37.188Z,0.00
2018-01-02T05:59:37.171Z,0.00
2018-01-02T06:00:37.161Z,0.00
2018-01-02T06:01:37.138Z,0.00
2018-01-02T06:02:37.124Z,0.00
2018-01-02T06:03:37.108Z,0.00
2018-01-02T06:04:37.095Z,0.00
2018-01-02T06:05:37.078Z,0.00
2018-01-02T06:06:37.071Z,0.00
2018-01-02T06:07:37.049Z,0.00
2018-01-02T06:08:37.038Z,0.00
2018-01-02T06:09:37.023Z,0.00
2018-01-02T06:10:37.003Z,0.00
2018-01-02T06:11:36.987Z,0.00
2018-01-02T06:12:36.972Z,0.00
2018-01-02T06:13:36.964Z,0.00
2018-01-02T06:14:36.943Z,0.00
2018-01-02T06:15:36.925Z,0.00
2018-01-02T06:16:36.913Z,0.00
2018-01-02T06:17:36.901Z,0.00
2018-01-02T06:18:36.880Z,0.00
2018-01-02T06:19:36.872Z,0.00
2018-01-02T06:20:36.859Z,0.00
2018-01-02T06:21:36.839Z,0.00
2018-01-02T06:22:36.826Z,0.00
2018-01-02T06:23:36.802Z,0.00
2018-01-02T06:24:36.795Z,0.00
2018-01-02T06:25:36.773Z,0.00
2018-01-02T06:26:36.762Z,0.00
2018-01-02T06:27:36.745Z,0.00
2018-01-02T06:28:36.734Z,0.00
2018-01-02T06:29:36.714Z,0.00
2018-01-02T06:30:36.700Z,0.00
2018-01-02T06:31:36.683Z,0.00
2018-01-02T06:32:36.673Z,0.00
2018-01-02T06:33:36.662Z,0.00
2018-01-02T06:34:36.641Z,0.00
2018-01-02T06:35:36.624Z,0.00
2018-01-02T06:36:36.611Z,0.00
2018-01-02T06:37:36.592Z,0.00
2018-01-02T06:38:36.578Z,0.00
2018-01-02T06:39:36.560Z,0.00
2018-01-02T06:40:36.546Z,0.00
2018-01-02T06:41:36.529Z,0.00
2018-01-02T06:42:36.515Z,0.00
2018-01-02T06:43:36.518Z,0.00
2018-01-02T06:44:36.493Z,0.00
2018-01-02T06:45:36.475Z,0.00
2018-01-02T06:46:36.460Z,0.00
2018-01-02T06:47:36.439Z,0.00
2018-01-02T06:48:36.426Z,0.00
2018-01-02T06:49:36.408Z,0.00
2018-01-02T06:50:36.393Z,0.00
2018-01-02T06:51:36.379Z,0.00
2018-01-02T06:52:36.361Z,0.00
2018-01-02T06:53:36.346Z,0.00
2018-01-02T06:54:36.337Z,0.00
2018-01-02T06:55:36.314Z,0.00
2018-01-02T06:56:36.306Z,0.00
2018-01-02T06:57:36.284Z,0.00
2018-01-02T06:58:36.268Z,0.00
2018-01-02T06:59:36.255Z,0.00
2018-01-02T07:00:36.235Z,0.00
2018-01-02T07:01:36.218Z,0.00
2018-01-02T07:02:36.208Z,0.00
2018-01-02T07:03:36.188Z,0.00
2018-01-02T07:04:36.171Z,0.00
2018-01-02T07:05:36.165Z,0.00
2018-01-02T07:06:36.150Z,0.00
2018-01-02T07:07:36.129Z,0.00
2018-01-02T07:08:36.111Z,0.00
2018-01-02T07:09:36.090Z,0.00
2018-01-02T07:10:36.083Z,0.00
2018-01-02T07:11:36.066Z,0.00
2018-01-02T07:12:36.046Z,0.00
2018-01-02T07:13:36.028Z,0.00
2018-01-02T07:14:36.017Z,0.00
2018-01-02T07:15:35.998Z,0.00
2018-01-02T07:16:35.982Z,0.00
2018-01-02T07:17:35.966Z,0.00
2018-01-02T07:18:35.951Z,0.00
2018-01-02T07:19:35.944Z,0.00
2018-01-02T07:20:35.922Z,0.00
2018-01-02T07:21:35.902Z,0.00
2018-01-02T07:22:35.893Z,0.00
2018-01-02T07:23:35.873Z,0.00
2018-01-02T07:24:35.856Z,0.00
2018-01-02T07:25:35.845Z,0.00
2018-01-02T07:26:35.824Z,0.00
2018-01-02T07:27:35.807Z,0.00
2018-01-02T07:28:35.792Z,0.00
2018-01-02T07:29:35.777Z,0.00
2018-01-02T07:30:35.760Z,0.00
2018-01-02T07:31:35.751Z,0.00
2018-01-02T07:32:35.733Z,0.00
2018-01-02T07:33:35.720Z,0.00
2018-01-02T07:34:35.701Z,0.00
2018-01-02T07:35:35.684Z,0.00
2018-01-02T07:36:35.669Z,0.00
2018-01-02T07:37:35.653Z,0.00
2018-01-02T07:38:35.634Z,0.00
2018-01-02T07:39:35.628Z,0.00
2018-01-02T07:40:35.606Z,0.00
2018-01-02T07:41:35.596Z,0.00
2018-01-02T07:42:35.580Z,0.00
2018-01-02T07:43:35.557Z,0.00
2018-01-02T07:44:35.543Z,0.00
2018-01-02T07:45:35.531Z,0.00
2018-01-02T07:46:35.511Z,0.00
2018-01-02T07:47:35.494Z,0.00
2018-01-02T07:48:35.481Z,0.00
2018-01-02T07:49:35.464Z,0.00
2018-01-02T07:50:35.448Z,0.00
2018-01-02T07:51:35.432Z,0.00
2018-01-02T07:52:35.424Z,0.00
2018-01-02T07:53:35.401Z,0.00
2018-01-02T07:54:35.386Z,0.00
2018-01-02T07:55:35.378Z,0.00
2018-01-02T07:56:35.357Z,0.00
2018-01-02T07:57:35.339Z,0.00
2018-01-02T07:58:35.324Z,0.00
2018-01-02T07:59:35.316Z,0.00
2018-01-02T08:00:35.294Z,0.00
2018-01-02T08:01:35.286Z,0.00
2018-01-02T08:02:35.268Z,0.00
2018-01-02T08:03:35.250Z,0.00
2018-01-02T08:04:35.232Z,0.00
2018-01-02T08:05:35.215Z,0.00
2018-01-02T08:06:35.204Z,0.00
2018-01-02T08:07:35.186Z,0.00
2018-01-02T08:08:35.170Z,0.00
2018-01-02T08:09:35.158Z,0.00
2018-01-02T08:10:35.139Z,0.00
2018-01-02T08:11:35.134Z,0.00
2018-01-02T08:12:35.115Z,0.00
2018-01-02T08:13:35.091Z,0.00
2018-01-02T08:14:35.077Z,0.00
2018-01-02T08:15:35.062Z,0.00
2018-01-02T08:16:35.046Z,0.00
2018-01-02T08:17:35.039Z,0.00
2018-01-02T08:18:35.017Z,0.00
2018-01-02T08:19:35.002Z,0.00
2018-01-02T08:20:34.989Z,0.00
2018-01-02T08:21:34.969Z,0.00
2018-01-02T08:22:34.956Z,0.00
2018-01-02T08:23:34.941Z,0.00
2018-01-02T08:24:34.924Z,0.00
2018-01-02T08:25:34.907Z,0.00
2018-01-02T08:26:34.897Z,0.00
2018-01-02T08:27:34.881Z,0.00
2018-01-02T08:28:34.866Z,0.00
2018-01-02T08:29:34.853Z,0.00
2018-01-02T08:30:34.830Z,0.00
2018-01-02T08:31:34.818Z,0.00
2018-01-02T08:32:34.800Z,0.00
2018-01-02T08:33:34.794Z,0.00
2018-01-02T08:34:34.768Z,0.00
2018-01-02T08:35:34.753Z,0.00
2018-01-02T08:36:34.738Z,0.00
2018-01-02T08:37:34.725Z,0.00
2018-01-02T08:38:34.711Z,0.00
2018-01-02T08:39:34.694Z,0.00
2018-01-02T08:40:34.674Z,0.00
2018-01-02T08:41:34.663Z,0.00
2018-01-02T08:42:34.643Z,0.00
2018-01-02T08:43:34.624Z,0.00
2018-01-02T08:44:34.612Z,0.00
2018-01-02T08:45:34.594Z,0.00
2018-01-02T08:46:34.577Z,0.00
2018-01-02T08:47:34.561Z,0.00
2018-01-02T08:48:34.549Z,0.00
2018-01-02T08:49:34.535Z,0.00
2018-01-02T08:50:34.526Z,0.00
2018-01-02T08:51:34.500Z,0.00
2018-01-02T08:52:34.484Z,5.63
2018-01-02T08:53:34.473Z,5.63
2018-01-02T08:54:34.451Z,5.63
2018-01-02T08:55:34.436Z,11.25
2018-01-02T08:56:34.424Z,11.25
2018-01-02T08:57:34.435Z,11.25
2018-01-02T08:58:34.395Z,11.25
2018-01-02T08:59:34.372Z,11.25
2018-01-02T09:00:34.355Z,5.63
2018-01-02T09:01:34.343Z,5.63
2018-01-02T09:02:34.322Z,5.63
2018-01-02T09:03:34.315Z,5.63
2018-01-02T09:04:34.293Z,5.63
2018-01-02T09:05:34.280Z,5.63
2018-01-02T09:06:34.263Z,5.63
2018-01-02T09:07:34.246Z,5.63
2018-01-02T09:08:34.235Z,5.63
2018-01-02T09:09:34.215Z,5.63
2018-01-02T09:10:34.205Z,5.63
2018-01-02T09:11:34.181Z,5.63
2018-01-02T09:12:34.163Z,5.63
2018-01-02T09:13:34.150Z,5.63
2018-01-02T09:14:34.140Z,5.63
2018-01-02T09:15:34.115Z,5.63
2018-01-02T09:16:34.100Z,5.63
2018-01-02T09:17:34.084Z,5.63
2018-01-02T09:18:34.067Z,5.63
2018-01-02T09:19:34.052Z,5.63
2018-01-02T09:20:34.041Z,5.63
2018-01-02T09:21:34.026Z,5.63
2018-01-02T09:22:34.009Z,5.63
2018-01-02T09:23:33.993Z,5.63
2018-01-02T09:24:33.973Z,11.25
2018-01-02T09:25:33.956Z,16.88
2018-01-02T09:26:33.940Z,28.13
2018-01-02T09:27:33.925Z,33.75
2018-01-02T09:28:33.910Z,39.38
2018-01-02T09:29:33.892Z,39.38
2018-01-02T09:30:33.880Z,45.00
2018-01-02T09:31:33.860Z,45.00
2018-01-02T09:32:33.852Z,33.75
2018-01-02T09:33:33.829Z,28.13
2018-01-02T09:34:33.814Z,28.13
2018-01-02T09:35:33.798Z,28.13
2018-01-02T09:36:33.788Z,22.50
2018-01-02T09:37:33.766Z,22.50
2018-01-02T09:38:33.755Z,22.50
2018-01-02T09:39:33.734Z,22.50
2018-01-02T09:40:33.718Z,22.50
2018-01-02T09:41:33.702Z,22.50
2018-01-02T09:42:33.688Z,28.13
2018-01-02T09:43:33.673Z,28.13
2018-01-02T09:44:33.657Z,28.13
2018-01-02T09:45:33.641Z,33.75
2018-01-02T09:46:33.630Z,33.75
2018-01-02T09:47:33.610Z,33.75
2018-01-02T09:48:33.597Z,39.38
2018-01-02T09:49:33.577Z,39.38
2018-01-02T09:50:33.562Z,39.38
2018-01-02T09:51:33.555Z,39.38
2018-01-02T09:52:33.538Z,45.00
2018-01-02T09:53:33.517Z,39.38
2018-01-02T09:54:33.503Z,45.00
2018-01-02T09:55:33.488Z,45.00
2018-01-02T09:56:33.472Z,45.00
2018-01-02T09:57:33.456Z,56.25
2018-01-02T09:58:33.441Z,45.00
2018-01-02T09:59:33.432Z,45.00
2018-01-02T10:00:33.415Z,45.00
2018-01-02T10:01:33.401Z,50.63
2018-01-02T10:02:33.381Z,50.63
2018-01-02T10:03:33.374Z,50.63
2018-01-02T10:04:33.359Z,50.63
2018-01-02T10:05:33.342Z,56.25
2018-01-02T10:06:33.327Z,61.88
2018-01-02T10:07:33.312Z,61.88
2018-01-02T10:08:33.292Z,61.88
2018-01-02T10:09:33.277Z,56.25
2018-01-02T10:10:33.263Z,56.25
2018-01-02T10:11:33.249Z,56.25
2018-01-02T10:12:33.240Z,50.63
2018-01-02T10:13:33.225Z,50.63
2018-01-02T10:14:33.205Z,50.63
2018-01-02T10:15:33.192Z,56.25
2018-01-02T10:16:33.184Z,50.63
2018-01-02T10:17:33.163Z,45.00
2018-01-02T10:18:33.149Z,45.00
2018-01-02T10:19:33.134Z,50.63
2018-01-02T10:20:33.124Z,50.63
2018-01-02T10:21:33.105Z,50.63
2018-01-02T10:22:33.097Z,50.63
2018-01-02T10:23:33.077Z,50.63
2018-01-02T10:24:33.063Z,45.00
2018-01-02T10:25:33.056Z,45.00
2018-01-02T10:26:33.035Z,45.00
2018-01-02T10:27:33.031Z,50.63
2018-01-02T10:28:33.008Z,61.88
2018-01-02T10:29:32.999Z,61.88
2018-01-02T10:30:32.988Z,50.63
2018-01-02T10:31:32.966Z,45.00
2018-01-02T10:32:32.959Z,50.63
2018-01-02T10:33:32.937Z,50.63
2018-01-02T10:34:32.939Z,50.63
2018-01-02T10:35:32.911Z,50.63
2018-01-02T10:36:32.903Z,45.00
2018-01-02T10:37:32.888Z,39.38
2018-01-02T10:38:32.872Z,39.38
2018-01-02T10:39:32.863Z,33.75
2018-01-02T10:40:32.843Z,33.75
2018-01-02T10:41:32.829Z,33.75
2018-01-02T10:42:32.818Z,33.75
2018-01-02T10:43:32.884Z,39.38
2018-01-02T10:44:32.787Z,39.38
2018-01-02T10:45:32.779Z,39.38
2018-01-02T10:46:32.765Z,45.00
2018-01-02T10:47:32.747Z,61.88
2018-01-02T10:48:32.733Z,67.50
2018-01-02T10:49:32.721Z,73.13
2018-01-02T10:50:32.709Z,73.13
2018-01-02T10:51:32.695Z,61.88
2018-01-02T10:52:32.681Z,56.25
2018-01-02T10:53:32.664Z,50.63
2018-01-02T10:54:32.656Z,50.63
2018-01-02T10:55:32.665Z,45.00
2018-01-02T10:56:32.634Z,45.00
2018-01-02T10:57:32.624Z,45.00
2018-01-02T10:58:32.598Z,45.00
2018-01-02T10:59:32.587Z,45.00
2018-01-02T11:00:32.572Z,39.38
2018-01-02T11:01:32.559Z,33.75
2018-01-02T11:02:32.550Z,28.13
2018-01-02T11:03:32.533Z,22.50
2018-01-02T11:04:32.523Z,16.88
2018-01-02T11:05:32.511Z,11.25
2018-01-02T11:06:32.493Z,16.88
2018-01-02T11:07:32.482Z,22.50
2018-01-02T11:08:32.466Z,28.13
2018-01-02T11:09:32.451Z,28.13
2018-01-02T11:10:32.439Z,22.50
2018-01-02T11:11:32.426Z,22.50
2018-01-02T11:12:32.413Z,22.50
2018-01-02T11:13:32.405Z,22.50
2018-01-02T11:14:32.383Z,28.13
2018-01-02T11:15:32.377Z,28.13
2018-01-02T11:16:32.360Z,28.13
2018-01-02T11:17:32.340Z,33.75
2018-01-02T11:18:32.329Z,39.38
2018-01-02T11:19:32.320Z,45.00
2018-01-02T11:20:32.302Z,45.00
2018-01-02T11:21:32.288Z,45.00
2018-01-02T11:22:32.272Z,45.00
2018-01-02T11:23:32.260Z,45.00
2018-01-02T11:24:32.246Z,45.00
2018-01-02T11:25:32.237Z,45.00
2018-01-02T11:26:32.220Z,50.63
2018-01-02T11:27:32.205Z,50.63
2018-01-02T11:28:32.226Z,61.88
2018-01-02T11:29:32.175Z,50.63
2018-01-02T11:30:32.162Z,50.63
2018-01-02T11:31:32.150Z,50.63
2018-01-02T11:32:32.141Z,50.63
2018-01-02T11:33:32.124Z,50.63
2018-01-02T11:34:32.108Z,45.00
2018-01-02T11:35:32.096Z,45.00
2018-01-02T11:36:32.080Z,45.00
2018-01-02T11:37:32.066Z,45.00
2018-01-02T11:38:32.054Z,45.00
2018-01-02T11:39:32.038Z,50.63
2018-01-02T11:40:32.025Z,50.63
2018-01-02T11:41:32.010Z,50.63
2018-01-02T11:42:31.998Z,45.00
2018-01-02T11:43:31.990Z,45.00
2018-01-02T11:44:31.971Z,45.00
2018-01-02T11:45:31.962Z,45.00
2018-01-02T11:46:31.947Z,39.38
2018-01-02T11:47:31.933Z,45.00
2018-01-02T11:48:31.920Z,45.00
2018-01-02T11:49:31.901Z,45.00
2018-01-02T11:50:31.886Z,45.00
2018-01-02T11:51:31.874Z,45.00
2018-01-02T11:52:31.858Z,45.00
2018-01-02T11:53:31.857Z,45.00
2018-01-02T11:54:31.832Z,45.00
2018-01-02T11:55:31.824Z,45.00
2018-01-02T11:56:31.805Z,45.00
2018-01-02T11:57:31.793Z,45.00
2018-01-02T11:58:31.779Z,45.00
2018-01-02T11:59:31.763Z,45.00
2018-01-02T12:00:31.755Z,45.00
2018-01-02T12:01:31.736Z,45.00
2018-01-02T12:02:31.721Z,50.63
2018-01-02T12:03:31.707Z,50.63
2018-01-02T12:04:31.696Z,50.63
2018-01-02T12:05:31.681Z,50.63
2018-01-02T12:06:31.666Z,45.00
2018-01-02T12:07:31.659Z,45.00
2018-01-02T12:08:31.680Z,45.00
2018-01-02T12:09:31.626Z,45.00
2018-01-02T12:10:31.622Z,45.00
2018-01-02T12:11:31.605Z,45.00
2018-01-02T12:12:31.587Z,45.00
2018-01-02T12:13:31.574Z,61.88
2018-01-02T12:14:31.557Z,50.63
2018-01-02T12:15:31.545Z,45.00
2018-01-02T12:16:31.537Z,45.00
2018-01-02T12:17:31.518Z,39.38
2018-01-02T12:18:31.503Z,39.38
2018-01-02T12:19:31.492Z,45.00
2018-01-02T12:20:31.485Z,45.00
2018-01-02T12:21:31.472Z,50.63
2018-01-02T12:22:31.455Z,45.00
2018-01-02T12:23:31.437Z,45.00
2018-01-02T12:24:31.424Z,45.00
2018-01-02T12:25:31.413Z,45.00
2018-01-02T12:26:31.400Z,45.00
2018-01-02T12:27:31.385Z,45.00
2018-01-02T12:28:31.372Z,45.00
2018-01-02T12:29:31.357Z,45.00
2018-01-02T12:30:31.343Z,45.00
2018-01-02T12:31:31.331Z,39.38
2018-01-02T12:32:31.318Z,39.38
2018-01-02T12:33:31.304Z,39.38
2018-01-02T12:34:31.294Z,39.38
2018-01-02T12:35:31.280Z,39.38
2018-01-02T12:36:31.265Z,39.38
2018-01-02T12:37:31.250Z,39.38
2018-01-02T12:38:31.237Z,39.38
2018-01-02T12:39:31.225Z,39.38
2018-01-02T12:40:31.231Z,39.38
2018-01-02T12:41:31.200Z,39.38
2018-01-02T12:42:31.187Z,39.38
2018-01-02T12:43:31.171Z,33.75
2018-01-02T12:44:31.159Z,50.63
2018-01-02T12:45:31.152Z,39.38
2018-01-02T12:46:31.134Z,39.38
2018-01-02T12:47:31.128Z,33.75
2018-01-02T12:48:31.115Z,45.00
2018-01-02T12:49:31.093Z,50.63
2018-01-02T12:50:31.080Z,45.00
2018-01-02T12:51:31.068Z,45.00
2018-01-02T12:52:31.065Z,45.00
2018-01-02T12:53:31.041Z,45.00
2018-01-02T12:54:31.028Z,45.00
2018-01-02T12:55:31.020Z,45.00
2018-01-02T12:56:31.010Z,45.00
2018-01-02T12:57:30.995Z,45.00
2018-01-02T12:58:30.979Z,45.00
2018-01-02T12:59:30.964Z,45.00
2018-01-02T13:00:30.952Z,39.38
2018-01-02T13:01:30.938Z,39.38
2018-01-02T13:02:30.933Z,39.38
2018-01-02T13:03:30.915Z,39.38
2018-01-02T13:04:30.902Z,56.25
2018-01-02T13:05:30.887Z,50.63
2018-01-02T13:06:30.875Z,45.00
2018-01-02T13:07:30.873Z,50.63
2018-01-02T13:08:30.848Z,45.00
2018-01-02T13:09:30.842Z,45.00
2018-01-02T13:10:30.833Z,45.00